Time;durP1;ratioP1;P1;durP2;ratioP2;P2;SDS_P1;SDS_P2;PMS_P1;PMS_P2;Temp;Humidity;BMP_temperature;BMP_pressure;BME280_temperature;BME280_humidity;BME280_pressure;Samples;Min_cycle;Max_cycle;Signal;HPM_P1;HPM_P2
2020/12/31 00:01:52;;;;;;;22.10;7.93;;;;;;;18.57;28.19;93763.41;5075205;28;20052;-43
2020/12/31 00:04:19;;;;;;;20.48;8.18;;;;;;;18.37;28.49;93767.19;5074575;28;20059;-44
2020/12/31 00:06:46;;;;;;;16.98;6.22;;;;;;;19.27;27.09;93768.44;5074476;28;20048;-44
2020/12/31 00:09:14;;;;;;;17.85;6.60;;;;;;;19.48;26.92;93778.56;5074496;28;20759;-44
2020/12/31 00:11:41;;;;;;;19.40;6.70;;;;;;;19.69;26.55;93778.94;5059994;28;20059;-44
2020/12/31 00:14:09;;;;;;;23.08;7.07;;;;;;;19.44;27.11;93756.56;5055571;28;20067;-44
2020/12/31 00:16:36;;;;;;;20.35;7.85;;;;;;;19.62;26.71;93767.47;5074881;28;20044;-45
2020/12/31 00:19:03;;;;;;;20.92;8.18;;;;;;;19.19;27.36;93758.06;5074458;28;20044;-46
2020/12/31 00:21:32;;;;;;;17.55;7.57;;;;;;;19.30;27.22;93767.72;5073336;28;20087;-45
2020/12/31 00:23:59;;;;;;;17.90;7.18;;;;;;;19.24;27.28;93763.81;5073953;28;20064;-45
2020/12/31 00:26:26;;;;;;;20.77;8.50;;;;;;;19.27;27.47;93757.06;5074177;28;20044;-44
2020/12/31 00:28:53;;;;;;;19.08;7.07;;;;;;;19.43;27.03;93755.03;5074207;28;20044;-46
2020/12/31 00:31:20;;;;;;;17.98;7.50;;;;;;;19.27;27.33;93752.53;5074408;28;20052;-45
2020/12/31 00:33:47;;;;;;;17.65;7.85;;;;;;;19.22;27.46;93749.41;5074094;28;20052;-45
2020/12/31 00:36:15;;;;;;;18.15;8.25;;;;;;;19.02;27.65;93746.84;5073774;28;20047;-44
2020/12/31 00:38:42;;;;;;;23.02;8.13;;;;;;;19.08;27.74;93745.41;5074007;28;20394;-44
2020/12/31 00:41:09;;;;;;;21.23;8.85;;;;;;;18.59;28.31;93755.13;5073906;28;20367;-44
2020/12/31 00:43:36;;;;;;;14.98;7.15;;;;;;;18.56;28.66;93753.19;5073909;28;20055;-44
2020/12/31 00:46:03;;;;;;;17.90;7.70;;;;;;;17.92;29.56;93747.41;5060412;28;20371;-44
2020/12/31 00:48:31;;;;;;;19.92;8.45;;;;;;;17.51;30.46;93748.75;5054006;28;20386;-45
2020/12/31 00:50:58;;;;;;;19.33;7.15;;;;;;;17.37;30.61;93729.94;5053870;28;20057;-44
2020/12/31 00:53:26;;;;;;;22.60;7.22;;;;;;;17.44;30.69;93735.41;5071477;28;20379;-44
2020/12/31 00:55:53;;;;;;;18.83;6.85;;;;;;;17.19;31.32;93714.47;5073423;28;20044;-44
2020/12/31 00:58:21;;;;;;;17.00;7.90;;;;;;;16.68;32.15;93733.97;5072684;28;20059;-43
2020/12/31 01:00:49;;;;;;;20.70;8.05;;;;;;;18.04;29.84;93712.13;5072842;28;20402;-44
2020/12/31 01:03:17;;;;;;;14.85;7.25;;;;;;;17.87;29.57;93713.31;5072682;28;20047;-45
2020/12/31 01:05:44;;;;;;;23.05;7.32;;;;;;;17.45;30.67;93721.09;5073522;28;20075;-43
2020/12/31 01:08:11;;;;;;;20.67;8.23;;;;;;;16.34;32.11;93718.38;5058324;28;20057;-42
2020/12/31 01:10:38;;;;;;;23.50;9.05;;;;;;;16.51;32.06;93722.59;5056616;28;20048;-42
2020/12/31 01:13:06;;;;;;;16.30;7.50;;;;;;;16.61;32.30;93718.69;5073555;28;20063;-42
2020/12/31 01:15:33;;;;;;;19.45;7.95;;;;;;;16.54;32.25;93706.09;5073584;28;20057;-42
2020/12/31 01:18:00;;;;;;;17.58;7.13;;;;;;;16.77;31.74;93697.63;5073356;28;20052;-43
2020/12/31 01:20:27;;;;;;;20.08;6.75;;;;;;;17.01;31.27;93704.59;5073398;28;20051;-43
2020/12/31 01:22:54;;;;;;;19.10;6.13;;;;;;;16.87;31.79;93713.69;5064963;28;20049;-43
2020/12/31 01:25:21;;;;;;;24.50;8.13;;;;;;;16.48;32.44;93696.88;5064604;28;20443;-43
2020/12/31 01:27:49;;;;;;;22.55;8.77;;;;;;;16.58;32.07;93708.81;5073616;28;20052;-43
2020/12/31 01:30:16;;;;;;;14.27;6.78;;;;;;;16.56;32.04;93709.16;5073657;28;20044;-43
2020/12/31 01:32:43;;;;;;;15.90;6.05;;;;;;;16.67;31.98;93708.69;5073688;28;20059;-43
2020/12/31 01:35:10;;;;;;;19.35;7.60;;;;;;;16.60;32.27;93725.06;5074169;28;20469;-43
2020/12/31 01:37:37;;;;;;;19.55;5.88;;;;;;;16.56;32.37;93719.69;5076943;28;20473;-43
2020/12/31 01:40:04;;;;;;;20.42;7.03;;;;;;;16.61;32.18;93716.81;5077298;28;20052;-43
2020/12/31 01:42:32;;;;;;;17.48;7.15;;;;;;;16.61;32.08;93711.53;5077825;28;20478;-43
2020/12/31 01:44:59;;;;;;;15.02;6.70;;;;;;;16.18;32.99;93716.81;5077302;28;20056;-44
2020/12/31 01:47:26;;;;;;;22.58;8.18;;;;;;;16.16;32.93;93711.88;5077278;28;20048;-43
2020/12/31 01:49:54;;;;;;;20.83;7.72;;;;;;;16.47;32.78;93699.88;5076287;28;20051;-43
2020/12/31 01:52:21;;;;;;;25.58;8.13;;;;;;;16.16;33.35;93705.84;5076314;28;20044;-43
2020/12/31 01:54:48;;;;;;;22.13;7.78;;;;;;;16.43;32.69;93694.50;5077005;28;20052;-43
2020/12/31 01:57:16;;;;;;;21.30;8.00;;;;;;;16.51;32.71;93700.72;5075932;28;20052;-43
2020/12/31 01:59:43;;;;;;;17.00;7.07;;;;;;;16.12;33.20;93705.72;5077192;28;20044;-43
2020/12/31 02:02:10;;;;;;;17.38;7.93;;;;;;;15.84;33.75;93710.22;5065899;28;20474;-43
2020/12/31 02:04:38;;;;;;;22.20;9.57;;;;;;;15.71;33.89;93681.28;5058510;28;20053;-43
2020/12/31 02:07:06;;;;;;;23.13;10.00;;;;;;;15.75;33.66;93691.94;5076681;28;20055;-43
2020/12/31 02:09:34;;;;;;;23.45;11.85;;;;;;;16.49;32.55;93700.28;5076891;28;20362;-43
2020/12/31 02:12:04;;;;;;;22.77;8.55;;;;;;;16.23;33.15;93695.47;5077017;28;20057;-43
2020/12/31 02:14:32;;;;;;;21.73;8.98;;;;;;;15.84;33.52;93695.19;5076572;28;20462;-43
2020/12/31 02:16:59;;;;;;;18.65;9.15;;;;;;;16.12;33.57;93695.19;5076718;28;20056;-44
2020/12/31 02:19:26;;;;;;;24.35;9.63;;;;;;;15.96;33.37;93700.41;5076783;28;20051;-43
2020/12/31 02:21:54;;;;;;;19.00;8.88;;;;;;;15.97;33.29;93688.78;5076805;28;20055;-43
2020/12/31 02:24:21;;;;;;;19.77;8.80;;;;;;;15.77;33.83;93686.31;5076934;28;20052;-43
2020/12/31 02:26:49;;;;;;;16.92;7.90;;;;;;;15.67;34.17;93679.66;5076825;28;20044;-43
2020/12/31 02:29:17;;;;;;;22.85;8.68;;;;;;;15.65;34.13;93687.13;5076815;28;20051;-43
2020/12/31 02:31:47;;;;;;;20.05;8.63;;;;;;;15.69;34.00;93672.19;5076787;28;20052;-43
2020/12/31 02:34:14;;;;;;;20.70;8.27;;;;;;;16.02;33.24;93659.53;5076681;28;20489;-44
2020/12/31 02:36:41;;;;;;;22.70;8.85;;;;;;;15.09;34.76;93660.63;5075901;28;20439;-43
2020/12/31 02:39:11;;;;;;;21.25;9.32;;;;;;;14.95;35.08;93647.06;5056314;28;20060;-43
2020/12/31 02:41:40;;;;;;;17.77;9.30;;;;;;;15.22;34.70;93659.53;5056388;28;20049;-43
2020/12/31 02:44:07;;;;;;;25.40;13.13;;;;;;;15.69;33.99;93653.75;5056343;28;20048;-43
2020/12/31 02:46:34;;;;;;;24.13;11.40;;;;;;;15.59;33.94;93631.25;5072112;28;20048;-43
2020/12/31 02:49:02;;;;;;;19.58;10.27;;;;;;;15.24;34.74;93625.72;5076125;28;20390;-43
2020/12/31 02:51:29;;;;;;;19.10;8.27;;;;;;;15.17;34.98;93630.03;5076135;28;20459;-42
2020/12/31 02:53:56;;;;;;;16.15;6.32;;;;;;;15.52;34.49;93630.25;5076156;28;20040;-43
2020/12/31 02:56:24;;;;;;;18.33;8.20;;;;;;;15.58;34.17;93626.28;5075654;28;20056;-43
2020/12/31 02:58:51;;;;;;;27.08;9.02;;;;;;;14.82;35.56;93610.19;5075974;28;20804;-43
2020/12/31 03:01:20;;;;;;;25.95;10.68;;;;;;;14.79;35.74;93636.41;5066542;28;20053;-42
2020/12/31 03:03:48;;;;;;;16.30;6.50;;;;;;;15.44;34.47;93637.22;5055994;28;20059;-43
2020/12/31 03:06:15;;;;;;;18.80;8.30;;;;;;;15.19;34.81;93641.75;5068720;28;20045;-43
2020/12/31 03:08:42;;;;;;;23.65;9.20;;;;;;;14.98;35.32;93622.69;5075753;28;20051;-43
2020/12/31 03:11:14;;;;;;;20.88;7.72;;;;;;;14.96;35.32;93635.41;5075881;28;20477;-43
2020/12/31 03:13:42;;;;;;;20.77;8.45;;;;;;;14.55;36.26;93626.66;5075499;28;20068;-43
2020/12/31 03:16:09;;;;;;;22.42;8.52;;;;;;;14.67;35.67;93616.16;5075496;28;20063;-43
2020/12/31 03:18:36;;;;;;;19.27;8.13;;;;;;;14.52;36.29;93624.69;5075654;28;20044;-43
2020/12/31 03:21:05;;;;;;;20.95;8.38;;;;;;;14.44;36.46;93620.28;5075664;28;20051;-43
2020/12/31 03:23:32;;;;;;;21.65;8.35;;;;;;;14.66;36.12;93625.13;5075527;28;20055;-43
2020/12/31 03:25:59;;;;;;;22.13;8.93;;;;;;;14.76;35.78;93637.84;5075346;28;20451;-43
2020/12/31 03:28:26;;;;;;;34.50;14.35;;;;;;;14.26;36.67;93639.94;5075330;28;20052;-42
2020/12/31 03:30:53;;;;;;;31.52;13.85;;;;;;;14.36;36.51;93634.28;5074559;28;20040;-43
2020/12/31 03:33:21;;;;;;;32.80;14.00;;;;;;;14.55;36.35;93626.66;5055534;28;20072;-43
2020/12/31 03:35:49;;;;;;;29.13;10.82;;;;;;;14.57;36.47;93606.03;5063438;28;20691;-43
2020/12/31 03:38:17;;;;;;;24.10;10.00;;;;;;;14.61;36.54;93625.34;5074925;28;20044;-43
2020/12/31 03:40:45;;;;;;;23.42;9.30;;;;;;;14.60;36.64;93630.94;5075357;28;20048;-42
2020/12/31 03:43:12;;;;;;;23.58;8.43;;;;;;;14.84;36.06;93627.56;5084505;28;20055;-43
2020/12/31 03:45:41;;;;;;;19.75;8.30;;;;;;;14.70;36.41;93622.59;5115263;28;20047;-43
2020/12/31 03:48:09;;;;;;;21.92;9.05;;;;;;;14.95;35.93;93618.09;5115547;28;20047;-42
2020/12/31 03:50:37;;;;;;;21.63;8.45;;;;;;;14.87;36.26;93608.47;5115543;28;20721;-43
2020/12/31 03:53:04;;;;;;;26.85;11.40;;;;;;;14.72;36.14;93615.91;5077408;28;20387;-43
2020/12/31 03:55:32;;;;;;;25.50;10.07;;;;;;;15.02;35.39;93607.78;5079962;28;20062;-43
2020/12/31 03:57:59;;;;;;;19.85;9.02;;;;;;;14.91;35.93;93598.81;5094260;28;20052;-42
2020/12/31 04:00:27;;;;;;;22.40;10.02;;;;;;;15.01;35.59;93585.19;5115380;28;20055;-43
2020/12/31 04:02:54;;;;;;;23.70;10.13;;;;;;;14.61;36.55;93599.06;5115422;28;20054;-43
2020/12/31 04:05:21;;;;;;;17.85;9.05;;;;;;;14.45;36.76;93591.03;5115265;28;20051;-42
2020/12/31 04:07:48;;;;;;;24.38;10.27;;;;;;;14.09;37.41;93589.13;5114655;28;20051;-43
2020/12/31 04:10:15;;;;;;;20.75;10.23;;;;;;;14.16;37.33;93593.84;5096377;28;20048;-43
2020/12/31 04:12:42;;;;;;;23.35;10.70;;;;;;;14.33;37.32;93603.41;5074470;28;20486;-42
2020/12/31 04:15:09;;;;;;;20.75;9.82;;;;;;;14.10;37.42;93606.41;5076275;28;20052;-43
2020/12/31 04:17:36;;;;;;;15.57;8.07;;;;;;;14.55;36.75;93583.78;5094756;28;20075;-42
2020/12/31 04:20:07;;;;;;;18.17;9.35;;;;;;;14.29;37.27;93581.47;5115115;28;20043;-44
2020/12/31 04:22:34;;;;;;;23.13;9.45;;;;;;;14.30;37.45;93588.25;5115143;28;20050;-43
2020/12/31 04:25:01;;;;;;;20.23;10.50;;;;;;;14.54;36.84;93598.81;5114684;28;20051;-43
2020/12/31 04:27:28;;;;;;;13.10;5.82;;;;;;;15.59;34.72;93588.34;5096765;28;20056;-43
2020/12/31 04:29:55;;;;;;;19.25;5.93;;;;;;;15.79;34.37;93587.38;5074197;28;20045;-43
2020/12/31 04:32:22;;;;;;;17.88;6.10;;;;;;;15.30;35.15;93586.75;5074284;28;20371;-43
2020/12/31 04:34:50;;;;;;;14.65;5.18;;;;;;;15.39;35.30;93574.25;5074066;28;20045;-43
2020/12/31 04:37:17;;;;;;;13.32;5.75;;;;;;;15.55;34.90;93572.41;5103284;28;20082;-43
2020/12/31 04:39:44;;;;;;;19.15;6.22;;;;;;;15.48;35.23;93576.72;5114604;28;20058;-43
2020/12/31 04:42:11;;;;;;;19.38;7.07;;;;;;;15.04;36.35;93587.16;5114725;28;20047;-43
2020/12/31 04:44:38;;;;;;;18.08;7.15;;;;;;;14.78;36.86;93582.25;5114650;28;20047;-42
2020/12/31 04:47:05;;;;;;;23.17;8.57;;;;;;;14.67;37.05;93581.94;5070810;28;20462;-43
2020/12/31 04:49:52;;;;;;;16.35;7.53;;;;;;;15.09;36.23;93571.13;5073955;28;20370;-45
2020/12/31 04:52:20;;;;;;;23.23;9.00;;;;;;;14.68;36.95;93577.44;5074156;28;20049;-42
2020/12/31 04:54:48;;;;;;;16.90;7.47;;;;;;;14.87;36.59;93574.25;5073999;28;20119;-43
2020/12/31 04:57:15;;;;;;;19.63;9.43;;;;;;;14.73;37.03;93591.16;5091608;28;20070;-43
2020/12/31 04:59:42;;;;;;;20.13;9.07;;;;;;;14.94;36.38;93590.25;5114291;28;20047;-43
2020/12/31 05:02:09;;;;;;;21.13;8.32;;;;;;;14.94;36.72;93590.25;5114350;28;20339;-43
2020/12/31 05:04:36;;;;;;;17.90;7.30;;;;;;;14.98;36.75;93583.22;5114480;28;20051;-43
2020/12/31 05:07:03;;;;;;;20.08;8.00;;;;;;;15.00;36.22;93589.69;5095582;28;20047;-43
2020/12/31 05:09:30;;;;;;;17.60;7.25;;;;;;;14.76;37.06;93574.69;5114102;28;20062;-43
2020/12/31 05:11:58;;;;;;;17.83;9.18;;;;;;;15.08;36.57;93580.13;5082701;28;20048;-43
2020/12/31 05:14:28;;;;;;;22.55;10.27;;;;;;;15.07;36.33;93589.88;5094082;28;20068;-44
2020/12/31 05:16:56;;;;;;;23.48;9.68;;;;;;;15.16;36.21;93573.97;5093411;28;20059;-43
2020/12/31 05:19:24;;;;;;;33.80;13.90;;;;;;;15.02;36.46;93594.63;5114376;28;20051;-43
2020/12/31 05:22:13;;;;;;;26.73;11.77;;;;;;;15.00;36.20;93583.66;5114136;28;20048;-43
2020/12/31 05:24:43;;;;;;;29.25;12.55;;;;;;;15.23;35.96;93603.13;5114200;28;20059;-44
2020/12/31 05:27:17;;;;;;;25.05;10.20;;;;;;;15.32;35.57;93611.66;5113828;28;20098;-43
2020/12/31 05:30:03;;;;;;;24.45;11.80;;;;;;;14.87;36.74;93605.84;5114173;28;20058;-43
2020/12/31 05:32:32;;;;;;;22.50;10.60;;;;;;;14.87;36.75;93605.84;5113119;28;20043;-43
2020/12/31 05:34:59;;;;;;;29.25;13.00;;;;;;;14.80;36.66;93604.50;5114109;28;20043;-43
2020/12/31 05:37:30;;;;;;;26.50;11.65;;;;;;;15.02;36.34;93586.72;5113047;28;20056;-43
2020/12/31 05:40:09;;;;;;;25.58;9.80;;;;;;;15.21;35.82;93609.84;5093741;28;20055;-42
2020/12/31 05:42:41;;;;;;;18.40;8.30;;;;;;;15.49;35.41;93615.13;5113397;28;20055;-43
2020/12/31 05:45:18;;;;;;;19.60;8.23;;;;;;;15.18;36.23;93605.22;5113921;28;20048;-42
2020/12/31 05:47:51;;;;;;;17.27;8.70;;;;;;;15.53;35.46;93608.84;5113761;28;20047;-44
2020/12/31 05:50:20;;;;;;;19.75;7.20;;;;;;;15.77;34.58;93600.13;5076920;28;20056;-43
2020/12/31 05:52:48;;;;;;;19.08;8.90;;;;;;;15.13;36.37;93598.34;5078766;28;20059;-44
2020/12/31 05:55:21;;;;;;;36.53;19.38;;;;;;;15.00;36.54;93616.00;5093547;28;20055;-43
2020/12/31 05:57:53;;;;;;;26.17;13.00;;;;;;;15.15;36.08;93617.19;5113389;28;20473;-43
2020/12/31 06:00:26;;;;;;;19.40;7.93;;;;;;;15.87;34.66;93612.81;5113819;28;20051;-43
2020/12/31 06:03:00;;;;;;;24.55;9.57;;;;;;;15.84;34.68;93605.56;5113773;28;20335;-43
2020/12/31 06:05:30;;;;;;;19.58;8.77;;;;;;;15.82;35.23;93607.78;5113786;28;20047;-42
2020/12/31 06:07:58;;;;;;;20.90;11.20;;;;;;;15.92;34.92;93631.03;5113374;28;20050;-43
2020/12/31 06:10:26;;;;;;;20.38;6.45;;;;;;;16.64;33.29;93615.84;5090106;28;20047;-43
2020/12/31 06:13:01;;;;;;;20.83;7.15;;;;;;;16.35;35.26;93635.50;5078479;28;20051;-43
2020/12/31 06:15:36;;;;;;;21.05;7.03;;;;;;;16.11;35.07;93625.09;5093334;28;20055;-44
2020/12/31 06:18:05;;;;;;;16.67;7.65;;;;;;;15.89;35.68;93612.50;5093273;28;20409;-43
2020/12/31 06:20:34;;;;;;;19.10;8.05;;;;;;;15.72;35.56;93606.41;5113863;28;20051;-44
2020/12/31 06:23:11;;;;;;;25.23;8.73;;;;;;;15.72;35.53;93595.88;5116936;28;20476;-43
2020/12/31 06:25:44;;;;;;;17.58;8.20;;;;;;;15.80;35.61;93607.34;5117007;28;20048;-42
2020/12/31 06:28:19;;;;;;;19.33;7.30;;;;;;;14.03;39.12;93616.69;5109963;28;20059;-42
2020/12/31 06:30:48;;;;;;;17.17;6.80;;;;;;;16.11;35.25;93624.34;5083481;28;20370;-42
2020/12/31 06:33:24;;;;;;;13.32;6.38;;;;;;;17.65;32.68;93619.56;5097668;28;20061;-42
2020/12/31 06:36:00;;;;;;;17.20;7.75;;;;;;;18.21;31.55;93615.69;5085829;28;20058;-42
2020/12/31 06:38:36;;;;;;;19.88;7.50;;;;;;;21.18;27.44;93630.34;5076095;28;20051;-41
2020/12/31 06:41:05;;;;;;;11.70;6.40;;;;;;;22.68;25.08;93637.78;5058682;28;20359;-41
2020/12/31 06:43:37;;;;;;;21.48;8.15;;;;;;;23.60;23.54;93638.88;5076160;28;20056;-42
2020/12/31 06:46:21;;;;;;;18.35;8.02;;;;;;;23.94;22.58;93645.25;5085593;28;20059;-43
2020/12/31 06:48:52;;;;;;;18.35;7.68;;;;;;;20.83;27.44;93652.88;5076122;28;20352;-42
2020/12/31 06:51:26;;;;;;;23.45;6.90;;;;;;;20.32;28.78;93640.25;5076687;28;20443;-42
2020/12/31 06:53:53;;;;;;;15.43;7.10;;;;;;;20.13;28.83;93643.06;5111354;28;20047;-45
2020/12/31 06:56:45;;;;;;;17.58;7.53;;;;;;;19.44;30.67;93649.78;5090831;28;20445;-41
2020/12/31 06:59:33;;;;;;;20.48;7.95;;;;;;;18.46;32.74;93657.34;5085366;28;20059;-44
2020/12/31 07:02:19;;;;;;;18.15;8.32;;;;;;;18.23;33.27;93661.09;5083078;28;20053;-44
2020/12/31 07:04:47;;;;;;;14.55;6.75;;;;;;;18.08;33.81;93668.75;5116533;28;20335;-43
2020/12/31 07:07:20;;;;;;;17.75;7.78;;;;;;;17.86;35.16;93667.59;5105508;28;20044;-43
2020/12/31 07:09:50;;;;;;;;;;;;;;;17.63;36.38;93672.00;5086713;28;20052;-43
2020/12/31 07:12:35;;;;;;;14.40;7.28;;;;;;;17.63;36.48;93671.22;5082888;28;19911;-43
2020/12/31 07:15:03;;;;;;;17.30;8.70;;;;;;;17.19;37.76;93663.53;5115899;28;20056;-42
2020/12/31 07:17:41;;;;;;;22.42;8.15;;;;;;;17.30;38.59;93661.88;5075787;28;20055;-43
2020/12/31 07:20:18;;;;;;;13.73;5.95;;;;;;;17.57;38.87;93658.28;5075827;28;20049;-43
2020/12/31 07:22:51;;;;;;;16.70;6.70;;;;;;;17.45;39.39;93665.59;5082228;28;20055;-43
2020/12/31 07:25:19;;;;;;;16.23;6.60;;;;;;;17.57;39.70;93665.47;5116136;28;20473;-43
2020/12/31 07:27:47;;;;;;;26.00;12.77;;;;;;;17.87;37.53;93690.28;5115979;28;20054;-43
2020/12/31 07:30:18;;;;;;;20.70;12.50;;;;;;;17.94;37.10;93684.34;5079744;28;20055;-44
2020/12/31 07:32:49;;;;;;;23.80;13.43;;;;;;;17.87;36.31;93684.22;5081971;28;20052;-42
2020/12/31 07:35:26;;;;;;;31.17;13.75;;;;;;;17.60;37.64;93685.91;5116092;28;20058;-44
2020/12/31 07:37:55;;;;;;;30.25;13.43;;;;;;;17.32;37.77;93693.22;5115599;28;20469;-43
2020/12/31 07:40:38;;;;;;;27.02;13.05;;;;;;;16.94;38.60;93687.50;5115966;28;20055;-43
2020/12/31 07:43:06;;;;;;;;;;;;;;;17.08;37.60;93684.41;5106768;28;20060;-43
2020/12/31 07:45:33;;;;;;;17.90;9.95;;;;;;;17.21;37.94;93672.63;5095371;28;19912;-42
2020/12/31 07:48:01;;;;;;;20.23;9.20;;;;;;;17.00;39.34;93681.94;5081918;28;20048;-43
2020/12/31 07:50:29;;;;;;;6.60;3.60;;;;;;;17.72;38.72;93672.59;5074996;28;20048;-43
2020/12/31 07:52:58;;;;;;;6.22;2.90;;;;;;;18.11;38.21;93672.59;5082367;28;20455;-43
2020/12/31 07:55:26;;;;;;;8.18;3.65;;;;;;;17.44;40.07;93678.03;5115696;28;20039;-44
2020/12/31 07:57:53;;;;;;;11.52;4.20;;;;;;;18.09;38.18;93670.28;5115329;28;20055;-44
2020/12/31 08:00:21;;;;;;;13.40;6.55;;;;;;;17.46;39.89;93675.06;5115558;28;20051;-44
2020/12/31 08:02:54;;;;;;;22.80;11.63;;;;;;;17.70;38.35;93685.41;5115247;28;20054;-45
2020/12/31 08:05:24;;;;;;;22.65;13.25;;;;;;;17.56;39.24;93691.13;5115485;28;20362;-44
2020/12/31 08:07:58;;;;;;;23.50;14.07;;;;;;;17.68;37.65;93677.03;5114748;28;20048;-44
2020/12/31 08:10:25;;;;;;;22.17;12.68;;;;;;;17.97;37.22;93690.84;5115324;28;20098;-45
2020/12/31 08:13:00;;;;;;;25.20;13.13;;;;;;;17.96;37.63;93702.53;5109255;28;20051;-44
2020/12/31 08:15:29;;;;;;;25.05;14.85;;;;;;;17.41;38.35;93707.00;5115242;28;20051;-44
2020/12/31 08:17:57;;;;;;;27.15;14.60;;;;;;;17.65;38.26;93714.69;5115095;28;20090;-44
2020/12/31 08:20:27;;;;;;;26.35;14.60;;;;;;;16.92;40.79;93720.63;5115526;28;20438;-44
2020/12/31 08:22:56;;;;;;;29.23;13.85;;;;;;;17.80;37.02;93706.00;5097281;28;20078;-45
2020/12/31 08:25:32;;;;;;;31.33;16.38;;;;;;;18.38;36.34;93715.78;5115163;28;20361;-45
2020/12/31 08:28:05;;;;;;;21.13;10.70;;;;;;;17.95;37.62;93730.06;5097020;28;20052;-45
2020/12/31 08:30:34;;;;;;;20.73;10.85;;;;;;;17.99;37.25;93710.53;5083213;28;20442;-44
2020/12/31 08:33:02;;;;;;;16.63;10.15;;;;;;;17.36;39.24;93717.84;5080068;28;20055;-44
2020/12/31 08:35:31;;;;;;;21.27;10.75;;;;;;;17.44;39.43;93714.25;5074046;28;20055;-44
2020/12/31 08:38:12;;;;;;;26.38;14.20;;;;;;;17.43;39.15;93718.00;5106628;28;20393;-45
2020/12/31 08:40:46;;;;;;;21.80;10.32;;;;;;;17.38;39.19;93723.53;5114676;28;20051;-46
2020/12/31 08:43:20;;;;;;;20.23;9.52;;;;;;;17.32;39.05;93722.28;5109504;28;20051;-45
2020/12/31 08:45:48;;;;;;;26.85;9.85;;;;;;;17.49;39.62;93685.69;5112024;28;20743;-45
2020/12/31 08:48:27;;;;;;;19.85;9.50;;;;;;;17.58;39.63;93693.41;5114582;28;20059;-44
2020/12/31 08:51:11;;;;;;;19.33;8.02;;;;;;;17.40;39.77;93681.69;5114536;28;20055;-44
2020/12/31 08:53:50;;;;;;;17.88;8.38;;;;;;;17.38;40.41;93668.84;5096571;28;20056;-45
2020/12/31 08:56:19;;;;;;;18.23;8.02;;;;;;;17.40;40.48;93682.47;5074046;28;20048;-44
2020/12/31 08:58:46;;;;;;;18.40;9.40;;;;;;;17.92;39.19;93680.53;5073698;28;20055;-45
2020/12/31 09:01:26;;;;;;;25.83;11.85;;;;;;;17.65;39.93;93666.38;5073830;28;20060;-44
2020/12/31 09:04:18;;;;;;;19.13;9.38;;;;;;;17.66;40.18;93673.94;5100427;28;20062;-46
2020/12/31 09:06:47;;;;;;;16.15;8.70;;;;;;;18.04;39.12;93669.81;5113883;28;20062;-45
2020/12/31 09:09:19;;;;;;;18.40;8.00;;;;;;;18.26;38.11;93660.41;5114254;28;20043;-45
2020/12/31 09:12:05;;;;;;;16.35;7.25;;;;;;;18.31;38.06;93674.09;5114119;28;20665;-45
2020/12/31 09:14:37;;;;;;;28.35;13.07;;;;;;;18.37;39.79;93691.22;5094543;28;20071;-44
2020/12/31 09:17:23;;;;;;;14.27;8.32;;;;;;;18.40;38.64;93682.56;5093704;28;20070;-45
2020/12/31 09:19:51;;;;;;;16.30;7.40;;;;;;;18.49;39.60;93688.41;5093779;28;20053;-44
2020/12/31 09:22:19;;;;;;;17.33;6.47;;;;;;;18.85;38.29;93662.56;5093806;28;20071;-45
2020/12/31 09:24:46;;;;;;;14.70;5.93;;;;;;;19.05;37.57;93671.97;5057707;28;20053;-46
2020/12/31 09:27:25;;;;;;;12.43;6.35;;;;;;;18.85;37.32;93681.09;5052463;28;20057;-45
2020/12/31 09:30:00;;;;;;;12.00;5.70;;;;;;;19.17;36.84;93662.28;5053552;28;20463;-45
2020/12/31 09:32:29;;;;;;;11.00;6.20;;;;;;;18.49;38.76;93655.91;5053826;28;20047;-44
2020/12/31 09:34:57;;;;;;;11.43;5.90;;;;;;;18.47;38.62;93661.50;5053267;28;20048;-45
2020/12/31 09:37:24;;;;;;;10.02;5.60;;;;;;;18.31;38.63;93660.88;5063946;28;20048;-45
2020/12/31 09:39:51;;;;;;;11.38;5.80;;;;;;;18.25;39.82;93645.66;5093305;28;20047;-45
2020/12/31 09:42:18;;;;;;;11.20;5.45;;;;;;;18.48;39.10;93649.84;5093745;28;20048;-45
2020/12/31 09:44:45;;;;;;;12.63;5.78;;;;;;;18.40;38.89;93642.88;5093627;28;20055;-46
2020/12/31 09:47:12;;;;;;;11.75;5.50;;;;;;;18.40;39.21;93637.59;5093494;28;20052;-44
2020/12/31 09:49:40;;;;;;;14.35;6.15;;;;;;;18.51;38.66;93637.78;5093621;28;20051;-45
2020/12/31 09:52:07;;;;;;;11.20;5.75;;;;;;;18.46;39.28;93609.72;5093971;28;20048;-46
2020/12/31 09:54:34;;;;;;;12.60;6.60;;;;;;;18.48;40.23;93618.09;5093049;28;20091;-46
2020/12/31 09:57:01;;;;;;;15.10;6.28;;;;;;;18.84;38.50;93623.97;5067174;28;20048;-45
2020/12/31 09:59:28;;;;;;;12.93;6.47;;;;;;;18.64;39.20;93609.28;5072552;28;20049;-45
2020/12/31 10:01:55;;;;;;;12.20;6.05;;;;;;;18.59;38.76;93612.19;5063020;28;20379;-45
2020/12/31 10:04:22;;;;;;;11.85;6.10;;;;;;;18.97;38.48;93606.75;5057056;28;20055;-44
2020/12/31 10:06:49;;;;;;;12.68;7.00;;;;;;;18.86;39.10;93616.41;5060017;28;20045;-44
2020/12/31 10:09:17;;;;;;;10.48;5.68;;;;;;;18.88;37.91;93598.28;5070511;28;20048;-44
2020/12/31 10:11:48;;;;;;;12.35;6.40;;;;;;;18.96;38.77;93613.16;5076830;28;20059;-43
2020/12/31 10:14:16;;;;;;;12.95;6.38;;;;;;;19.03;38.71;93613.28;5089431;28;20470;-43
2020/12/31 10:16:43;;;;;;;288.80;186.25;;;;;;;19.08;40.11;93617.50;5096937;28;20052;-45
2020/12/31 10:19:10;;;;;;;107.07;79.15;;;;;;;19.28;38.74;93591.66;5096871;28;20051;-43
2020/12/31 10:21:38;;;;;;;30.25;19.95;;;;;;;19.60;37.17;93603.44;5096916;28;20047;-43
2020/12/31 10:24:05;;;;;;;18.55;9.18;;;;;;;20.31;34.52;93601.56;5086634;28;20083;-44
2020/12/31 10:26:32;;;;;;;5.85;2.80;;;;;;;21.46;29.60;93589.88;5076599;28;20071;-44
2020/12/31 10:28:59;;;;;;;6.55;3.50;;;;;;;21.02;31.49;93574.03;5087513;28;20052;-45
2020/12/31 10:31:26;;;;;;;8.07;3.63;;;;;;;21.53;30.75;93587.25;5117345;28;20438;-44
2020/12/31 10:33:53;;;;;;;6.10;3.05;;;;;;;21.98;29.91;93582.47;5080033;28;20055;-46
2020/12/31 10:36:20;;;;;;;14.00;6.10;;;;;;;21.99;30.03;93597.28;5088634;28;20047;-48
2020/12/31 10:38:47;;;;;;;8.68;5.25;;;;;;;22.41;29.28;93581.44;5105048;28;20051;-48
2020/12/31 10:41:14;;;;;;;10.55;6.05;;;;;;;22.25;28.75;93599.66;5091876;28;20386;-45
2020/12/31 10:43:42;;;;;;;8.45;3.55;;;;;;;22.61;26.33;93568.50;5085221;28;20051;-45
2020/12/31 10:46:09;;;;;;;4.82;2.42;;;;;;;23.18;25.75;93573.06;5116698;28;20755;-47
2020/12/31 10:48:36;;;;;;;9.18;2.22;;;;;;;23.21;25.46;93573.03;5115503;28;20058;-47
2020/12/31 10:51:03;;;;;;;7.93;1.98;;;;;;;23.14;25.83;93565.03;5076376;28;20455;-47
2020/12/31 10:53:30;;;;;;;5.15;1.90;;;;;;;23.36;26.59;93549.75;5076320;28;20056;-47
2020/12/31 10:55:57;;;;;;;4.57;2.10;;;;;;;23.28;25.67;93546.34;5092418;28;20054;-49
2020/12/31 10:58:25;;;;;;;4.30;1.65;;;;;;;23.10;25.05;93545.63;5116402;28;20048;-48
2020/12/31 11:00:52;;;;;;;4.22;1.80;;;;;;;24.00;23.88;93536.16;5116794;28;20065;-46
2020/12/31 11:03:19;;;;;;;3.83;1.65;;;;;;;22.99;25.45;93526.25;5116500;28;20047;-47
2020/12/31 11:05:47;;;;;;;6.05;1.90;;;;;;;22.91;25.19;93544.16;5104505;28;20066;-43
2020/12/31 11:08:15;;;;;;;7.30;2.10;;;;;;;20.62;30.01;93518.03;5108661;28;20059;-43
2020/12/31 11:10:42;;;;;;;7.65;1.85;;;;;;;20.65;29.85;93513.09;5088797;28;20450;-47
2020/12/31 11:13:09;;;;;;;3.17;2.22;;;;;;;21.88;28.50;93536.09;5095785;28;20059;-45
2020/12/31 11:15:36;;;;;;;41.88;38.60;;;;;;;22.98;27.64;93543.38;5087054;28;20056;-46
2020/12/31 11:18:04;;;;;;;33.65;30.00;;;;;;;24.64;23.60;93524.28;5075471;28;20447;-47
2020/12/31 11:20:31;;;;;;;10.05;6.63;;;;;;;22.56;26.21;93542.25;5090556;28;20052;-45
2020/12/31 11:22:59;;;;;;;11.95;2.65;;;;;;;21.77;27.40;93527.31;5075716;28;20071;-46
2020/12/31 11:25:26;;;;;;;5.10;1.65;;;;;;;22.12;26.98;93522.09;5075338;28;20366;-43
2020/12/31 11:27:53;;;;;;;5.25;2.00;;;;;;;21.71;27.40;93528.81;5075085;28;20055;-47
2020/12/31 11:30:20;;;;;;;4.53;1.98;;;;;;;22.10;27.09;93535.00;5079698;28;20469;-44
2020/12/31 11:32:47;;;;;;;5.68;1.67;;;;;;;21.92;27.02;93539.50;5113688;28;20753;-44
2020/12/31 11:35:15;;;;;;;4.70;1.73;;;;;;;21.94;26.15;93531.91;5114813;28;20047;-44